sensor_id;sensor_type;location;lat;lon;timestamp;P1;durP1;ratioP1;P2;durP2;ratioP2
6251;SDS011;3159;52.414;9.784;2022-11-20T00:00:15;20.33;;;12.90;;
6251;SDS011;3159;52.414;9.784;2022-11-20T00:02:42;19.87;;;13.13;;
6251;SDS011;3159;52.414;9.784;2022-11-20T00:05:09;20.80;;;13.20;;
6251;SDS011;3159;52.414;9.784;2022-11-20T00:07:36;21.20;;;14.00;;
6251;SDS011;3159;52.414;9.784;2022-11-20T00:10:03;18.23;;;13.50;;
6251;SDS011;3159;52.414;9.784;2022-11-20T00:12:31;20.43;;;13.73;;
6251;SDS011;3159;52.414;9.784;2022-11-20T00:14:59;22.00;;;13.73;;
6251;SDS011;3159;52.414;9.784;2022-11-20T00:17:26;19.50;;;13.10;;
6251;SDS011;3159;52.414;9.784;2022-11-20T00:19:52;20.87;;;14.10;;
6251;SDS011;3159;52.414;9.784;2022-11-20T00:22:19;20.83;;;13.97;;
6251;SDS011;3159;52.414;9.784;2022-11-20T00:24:46;20.00;;;13.50;;
6251;SDS011;3159;52.414;9.784;2022-11-20T00:27:13;23.03;;;14.20;;
6251;SDS011;3159;52.414;9.784;2022-11-20T00:29:40;21.60;;;13.43;;
6251;SDS011;3159;52.414;9.784;2022-11-20T00:32:08;20.43;;;13.53;;
6251;SDS011;3159;52.414;9.784;2022-11-20T00:34:35;19.60;;;13.33;;
6251;SDS011;3159;52.414;9.784;2022-11-20T00:37:01;21.60;;;13.70;;
6251;SDS011;3159;52.414;9.784;2022-11-20T00:39:28;19.93;;;13.33;;
6251;SDS011;3159;52.414;9.784;2022-11-20T00:41:55;19.03;;;13.70;;
6251;SDS011;3159;52.414;9.784;2022-11-20T00:44:22;19.70;;;13.23;;
6251;SDS011;3159;52.414;9.784;2022-11-20T00:46:49;18.87;;;13.13;;
6251;SDS011;3159;52.414;9.784;2022-11-20T00:49:17;20.40;;;13.40;;
6251;SDS011;3159;52.414;9.784;2022-11-20T00:51:44;24.97;;;14.37;;
6251;SDS011;3159;52.414;9.784;2022-11-20T00:54:10;20.43;;;13.47;;
6251;SDS011;3159;52.414;9.784;2022-11-20T00:56:37;19.87;;;13.73;;
6251;SDS011;3159;52.414;9.784;2022-11-20T00:59:05;19.00;;;13.30;;
6251;SDS011;3159;52.414;9.784;2022-11-20T01:01:32;19.57;;;13.83;;
6251;SDS011;3159;52.414;9.784;2022-11-20T01:03:59;20.03;;;13.53;;
6251;SDS011;3159;52.414;9.784;2022-11-20T01:06:28;17.37;;;12.83;;
6251;SDS011;3159;52.414;9.784;2022-11-20T01:08:57;22.33;;;12.63;;
6251;SDS011;3159;52.414;9.784;2022-11-20T01:11:26;18.90;;;12.67;;
6251;SDS011;3159;52.414;9.784;2022-11-20T01:13:54;19.10;;;12.37;;
6251;SDS011;3159;52.414;9.784;2022-11-20T01:16:23;21.57;;;12.73;;
6251;SDS011;3159;52.414;9.784;2022-11-20T01:18:51;18.03;;;12.10;;
6251;SDS011;3159;52.414;9.784;2022-11-20T01:21:20;15.23;;;10.67;;
6251;SDS011;3159;52.414;9.784;2022-11-20T01:23:49;14.17;;;10.57;;
6251;SDS011;3159;52.414;9.784;2022-11-20T01:26:17;16.53;;;10.60;;
6251;SDS011;3159;52.414;9.784;2022-11-20T01:28:45;16.30;;;10.93;;
6251;SDS011;3159;52.414;9.784;2022-11-20T01:31:13;15.80;;;10.00;;
6251;SDS011;3159;52.414;9.784;2022-11-20T01:33:43;15.67;;;10.47;;
6251;SDS011;3159;52.414;9.784;2022-11-20T01:36:10;14.37;;;10.43;;
6251;SDS011;3159;52.414;9.784;2022-11-20T01:38:39;15.40;;;10.53;;
6251;SDS011;3159;52.414;9.784;2022-11-20T01:41:07;17.40;;;9.80;;
6251;SDS011;3159;52.414;9.784;2022-11-20T01:43:35;15.37;;;10.27;;
6251;SDS011;3159;52.414;9.784;2022-11-20T01:46:06;13.87;;;9.53;;
6251;SDS011;3159;52.414;9.784;2022-11-20T01:48:42;15.87;;;9.53;;
6251;SDS011;3159;52.414;9.784;2022-11-20T01:51:16;15.23;;;10.03;;
6251;SDS011;3159;52.414;9.784;2022-11-20T01:53:47;16.33;;;10.20;;
6251;SDS011;3159;52.414;9.784;2022-11-20T01:56:17;14.87;;;10.13;;
6251;SDS011;3159;52.414;9.784;2022-11-20T01:58:46;14.07;;;10.20;;
6251;SDS011;3159;52.414;9.784;2022-11-20T02:01:16;12.97;;;9.57;;
6251;SDS011;3159;52.414;9.784;2022-11-20T02:03:43;17.10;;;10.37;;
6251;SDS011;3159;52.414;9.784;2022-11-20T02:06:11;13.00;;;9.23;;
6251;SDS011;3159;52.414;9.784;2022-11-20T02:08:42;12.97;;;9.47;;
6251;SDS011;3159;52.414;9.784;2022-11-20T02:11:09;13.20;;;9.47;;
6251;SDS011;3159;52.414;9.784;2022-11-20T02:13:39;13.17;;;9.03;;
6251;SDS011;3159;52.414;9.784;2022-11-20T02:16:08;17.17;;;10.30;;
6251;SDS011;3159;52.414;9.784;2022-11-20T02:18:47;13.60;;;9.60;;
6251;SDS011;3159;52.414;9.784;2022-11-20T02:21:20;13.30;;;9.47;;
6251;SDS011;3159;52.414;9.784;2022-11-20T02:24:01;15.50;;;9.60;;
6251;SDS011;3159;52.414;9.784;2022-11-20T02:26:34;14.70;;;9.50;;
6251;SDS011;3159;52.414;9.784;2022-11-20T02:29:10;12.37;;;9.57;;
6251;SDS011;3159;52.414;9.784;2022-11-20T02:31:37;13.47;;;9.20;;
6251;SDS011;3159;52.414;9.784;2022-11-20T02:34:06;13.47;;;10.03;;
6251;SDS011;3159;52.414;9.784;2022-11-20T02:36:34;15.47;;;9.93;;
6251;SDS011;3159;52.414;9.784;2022-11-20T02:39:04;13.93;;;9.60;;
6251;SDS011;3159;52.414;9.784;2022-11-20T02:41:32;11.97;;;10.17;;
6251;SDS011;3159;52.414;9.784;2022-11-20T02:44:00;13.33;;;9.47;;
6251;SDS011;3159;52.414;9.784;2022-11-20T02:46:28;14.87;;;9.97;;
6251;SDS011;3159;52.414;9.784;2022-11-20T02:48:55;14.37;;;10.27;;
6251;SDS011;3159;52.414;9.784;2022-11-20T02:51:22;14.90;;;10.20;;
6251;SDS011;3159;52.414;9.784;2022-11-20T02:53:49;12.83;;;10.33;;
6251;SDS011;3159;52.414;9.784;2022-11-20T02:56:18;15.33;;;10.93;;
6251;SDS011;3159;52.414;9.784;2022-11-20T02:58:45;19.40;;;11.63;;
6251;SDS011;3159;52.414;9.784;2022-11-20T03:01:13;15.63;;;10.53;;
6251;SDS011;3159;52.414;9.784;2022-11-20T03:03:40;18.40;;;11.60;;
6251;SDS011;3159;52.414;9.784;2022-11-20T03:06:07;17.10;;;11.53;;
6251;SDS011;3159;52.414;9.784;2022-11-20T03:08:34;15.97;;;11.77;;
6251;SDS011;3159;52.414;9.784;2022-11-20T03:11:02;16.67;;;11.83;;
6251;SDS011;3159;52.414;9.784;2022-11-20T03:13:32;15.90;;;11.13;;
6251;SDS011;3159;52.414;9.784;2022-11-20T03:16:04;16.50;;;11.40;;
6251;SDS011;3159;52.414;9.784;2022-11-20T03:18:35;17.00;;;11.37;;
6251;SDS011;3159;52.414;9.784;2022-11-20T03:21:02;15.97;;;10.97;;
6251;SDS011;3159;52.414;9.784;2022-11-20T03:23:29;15.83;;;11.17;;
6251;SDS011;3159;52.414;9.784;2022-11-20T03:26:07;15.57;;;11.10;;
6251;SDS011;3159;52.414;9.784;2022-11-20T03:28:36;17.57;;;10.67;;
6251;SDS011;3159;52.414;9.784;2022-11-20T03:31:07;17.50;;;10.90;;
6251;SDS011;3159;52.414;9.784;2022-11-20T03:33:35;17.23;;;11.40;;
6251;SDS011;3159;52.414;9.784;2022-11-20T03:36:02;13.97;;;9.77;;
6251;SDS011;3159;52.414;9.784;2022-11-20T03:38:31;15.90;;;10.37;;
6251;SDS011;3159;52.414;9.784;2022-11-20T03:40:59;16.47;;;11.20;;
6251;SDS011;3159;52.414;9.784;2022-11-20T03:43:26;14.13;;;10.67;;
6251;SDS011;3159;52.414;9.784;2022-11-20T03:45:55;13.63;;;10.27;;
6251;SDS011;3159;52.414;9.784;2022-11-20T03:48:22;16.70;;;10.83;;
6251;SDS011;3159;52.414;9.784;2022-11-20T03:50:49;14.07;;;9.90;;
6251;SDS011;3159;52.414;9.784;2022-11-20T03:53:16;14.77;;;11.13;;
6251;SDS011;3159;52.414;9.784;2022-11-20T03:55:43;15.47;;;10.40;;
6251;SDS011;3159;52.414;9.784;2022-11-20T03:58:10;15.30;;;10.53;;
6251;SDS011;3159;52.414;9.784;2022-11-20T04:00:38;15.40;;;10.83;;
6251;SDS011;3159;52.414;9.784;2022-11-20T04:03:06;15.80;;;11.23;;
6251;SDS011;3159;52.414;9.784;2022-11-20T04:05:33;17.17;;;11.20;;
6251;SDS011;3159;52.414;9.784;2022-11-20T04:08:00;17.50;;;10.70;;
6251;SDS011;3159;52.414;9.784;2022-11-20T04:10:27;16.13;;;10.50;;
6251;SDS011;3159;52.414;9.784;2022-11-20T04:12:54;15.30;;;10.50;;
6251;SDS011;3159;52.414;9.784;2022-11-20T04:15:21;14.37;;;9.73;;
6251;SDS011;3159;52.414;9.784;2022-11-20T04:17:47;14.40;;;9.63;;
6251;SDS011;3159;52.414;9.784;2022-11-20T04:20:16;12.47;;;9.00;;
6251;SDS011;3159;52.414;9.784;2022-11-20T04:22:43;14.13;;;9.83;;
6251;SDS011;3159;52.414;9.784;2022-11-20T04:25:09;15.33;;;10.07;;
6251;SDS011;3159;52.414;9.784;2022-11-20T04:27:36;12.50;;;9.00;;
6251;SDS011;3159;52.414;9.784;2022-11-20T04:30:04;13.00;;;9.60;;
6251;SDS011;3159;52.414;9.784;2022-11-20T04:32:31;15.47;;;10.33;;
6251;SDS011;3159;52.414;9.784;2022-11-20T04:34:58;16.33;;;10.23;;
6251;SDS011;3159;52.414;9.784;2022-11-20T04:37:26;14.20;;;9.37;;
6251;SDS011;3159;52.414;9.784;2022-11-20T04:39:53;13.93;;;9.80;;
6251;SDS011;3159;52.414;9.784;2022-11-20T04:42:20;12.93;;;9.27;;
6251;SDS011;3159;52.414;9.784;2022-11-20T04:44:56;16.37;;;9.40;;
6251;SDS011;3159;52.414;9.784;2022-11-20T04:47:24;14.20;;;8.83;;
6251;SDS011;3159;52.414;9.784;2022-11-20T04:49:51;14.57;;;9.30;;
6251;SDS011;3159;52.414;9.784;2022-11-20T04:52:18;12.03;;;9.57;;
6251;SDS011;3159;52.414;9.784;2022-11-20T04:54:46;14.33;;;10.23;;
6251;SDS011;3159;52.414;9.784;2022-11-20T04:57:14;14.47;;;10.47;;
6251;SDS011;3159;52.414;9.784;2022-11-20T04:59:41;15.70;;;9.47;;
6251;SDS011;3159;52.414;9.784;2022-11-20T05:02:08;14.63;;;9.70;;
6251;SDS011;3159;52.414;9.784;2022-11-20T05:04:35;14.70;;;9.67;;
6251;SDS011;3159;52.414;9.784;2022-11-20T05:07:02;15.43;;;9.63;;
6251;SDS011;3159;52.414;9.784;2022-11-20T05:09:29;16.07;;;9.90;;
6251;SDS011;3159;52.414;9.784;2022-11-20T05:11:57;17.30;;;10.83;;
6251;SDS011;3159;52.414;9.784;2022-11-20T05:14:24;15.50;;;9.80;;
6251;SDS011;3159;52.414;9.784;2022-11-20T05:16:51;16.83;;;10.77;;
6251;SDS011;3159;52.414;9.784;2022-11-20T05:19:18;15.13;;;9.80;;
6251;SDS011;3159;52.414;9.784;2022-11-20T05:21:45;17.20;;;11.40;;
6251;SDS011;3159;52.414;9.784;2022-11-20T05:24:11;18.13;;;10.93;;
6251;SDS011;3159;52.414;9.784;2022-11-20T05:26:38;18.03;;;12.17;;
6251;SDS011;3159;52.414;9.784;2022-11-20T05:29:09;21.83;;;13.10;;
6251;SDS011;3159;52.414;9.784;2022-11-20T05:31:36;19.63;;;12.07;;
6251;SDS011;3159;52.414;9.784;2022-11-20T05:34:04;17.10;;;11.47;;
6251;SDS011;3159;52.414;9.784;2022-11-20T05:36:31;15.50;;;10.63;;
6251;SDS011;3159;52.414;9.784;2022-11-20T05:38:59;17.60;;;10.63;;
6251;SDS011;3159;52.414;9.784;2022-11-20T05:41:26;14.27;;;11.67;;
6251;SDS011;3159;52.414;9.784;2022-11-20T05:43:52;12.47;;;10.03;;
6251;SDS011;3159;52.414;9.784;2022-11-20T05:46:21;13.23;;;9.40;;
6251;SDS011;3159;52.414;9.784;2022-11-20T05:48:47;13.87;;;9.43;;
6251;SDS011;3159;52.414;9.784;2022-11-20T05:51:15;15.33;;;9.60;;
6251;SDS011;3159;52.414;9.784;2022-11-20T05:53:43;13.10;;;9.80;;
6251;SDS011;3159;52.414;9.784;2022-11-20T05:56:10;12.47;;;9.40;;
6251;SDS011;3159;52.414;9.784;2022-11-20T05:58:39;11.87;;;8.97;;
6251;SDS011;3159;52.414;9.784;2022-11-20T06:01:07;13.07;;;9.33;;
6251;SDS011;3159;52.414;9.784;2022-11-20T06:03:37;12.13;;;8.93;;
6251;SDS011;3159;52.414;9.784;2022-11-20T06:06:05;12.03;;;9.13;;
6251;SDS011;3159;52.414;9.784;2022-11-20T06:08:32;12.27;;;9.03;;
6251;SDS011;3159;52.414;9.784;2022-11-20T06:11:02;14.90;;;9.23;;
6251;SDS011;3159;52.414;9.784;2022-11-20T06:13:30;11.77;;;9.37;;
6251;SDS011;3159;52.414;9.784;2022-11-20T06:15:57;13.90;;;9.20;;
6251;SDS011;3159;52.414;9.784;2022-11-20T06:18:25;12.20;;;8.70;;
6251;SDS011;3159;52.414;9.784;2022-11-20T06:21:00;15.93;;;10.20;;
6251;SDS011;3159;52.414;9.784;2022-11-20T06:23:28;15.47;;;9.67;;
6251;SDS011;3159;52.414;9.784;2022-11-20T06:25:56;13.63;;;8.57;;
6251;SDS011;3159;52.414;9.784;2022-11-20T06:28:24;14.00;;;8.83;;
6251;SDS011;3159;52.414;9.784;2022-11-20T06:30:51;10.87;;;8.37;;
6251;SDS011;3159;52.414;9.784;2022-11-20T06:33:18;10.57;;;7.33;;
6251;SDS011;3159;52.414;9.784;2022-11-20T06:35:45;11.70;;;8.27;;
6251;SDS011;3159;52.414;9.784;2022-11-20T06:38:13;10.83;;;7.50;;
6251;SDS011;3159;52.414;9.784;2022-11-20T06:40:40;12.43;;;7.20;;
6251;SDS011;3159;52.414;9.784;2022-11-20T06:43:07;9.77;;;7.10;;
6251;SDS011;3159;52.414;9.784;2022-11-20T06:45:34;9.57;;;7.40;;
6251;SDS011;3159;52.414;9.784;2022-11-20T06:48:01;11.00;;;7.83;;
6251;SDS011;3159;52.414;9.784;2022-11-20T06:50:28;9.60;;;7.27;;
6251;SDS011;3159;52.414;9.784;2022-11-20T06:52:55;11.17;;;7.67;;
6251;SDS011;3159;52.414;9.784;2022-11-20T06:55:23;10.93;;;7.77;;
6251;SDS011;3159;52.414;9.784;2022-11-20T06:57:50;12.00;;;8.03;;
6251;SDS011;3159;52.414;9.784;2022-11-20T07:00:17;11.37;;;8.40;;
6251;SDS011;3159;52.414;9.784;2022-11-20T07:02:44;13.27;;;8.67;;
6251;SDS011;3159;52.414;9.784;2022-11-20T07:05:11;12.40;;;8.37;;
6251;SDS011;3159;52.414;9.784;2022-11-20T07:07:38;10.47;;;8.33;;
6251;SDS011;3159;52.414;9.784;2022-11-20T07:10:05;15.30;;;9.73;;
6251;SDS011;3159;52.414;9.784;2022-11-20T07:12:34;15.93;;;11.17;;
6251;SDS011;3159;52.414;9.784;2022-11-20T07:15:00;15.93;;;10.27;;
6251;SDS011;3159;52.414;9.784;2022-11-20T07:17:27;14.40;;;10.30;;
6251;SDS011;3159;52.414;9.784;2022-11-20T07:19:54;15.73;;;10.43;;
6251;SDS011;3159;52.414;9.784;2022-11-20T07:22:21;16.27;;;10.73;;
6251;SDS011;3159;52.414;9.784;2022-11-20T07:24:48;18.40;;;11.20;;
6251;SDS011;3159;52.414;9.784;2022-11-20T07:27:15;17.17;;;10.63;;
6251;SDS011;3159;52.414;9.784;2022-11-20T07:29:43;17.53;;;10.57;;
6251;SDS011;3159;52.414;9.784;2022-11-20T07:32:10;15.03;;;9.80;;
6251;SDS011;3159;52.414;9.784;2022-11-20T07:34:36;14.00;;;9.43;;
6251;SDS011;3159;52.414;9.784;2022-11-20T07:37:03;14.00;;;8.73;;
6251;SDS011;3159;52.414;9.784;2022-11-20T07:39:30;13.97;;;9.13;;
6251;SDS011;3159;52.414;9.784;2022-11-20T07:41:57;13.80;;;9.33;;
6251;SDS011;3159;52.414;9.784;2022-11-20T07:44:24;12.40;;;8.80;;
6251;SDS011;3159;52.414;9.784;2022-11-20T07:46:52;13.63;;;8.87;;
6251;SDS011;3159;52.414;9.784;2022-11-20T07:49:18;12.87;;;8.53;;
6251;SDS011;3159;52.414;9.784;2022-11-20T07:51:45;11.80;;;8.87;;
6251;SDS011;3159;52.414;9.784;2022-11-20T07:54:12;12.67;;;8.97;;
6251;SDS011;3159;52.414;9.784;2022-11-20T07:56:39;11.57;;;9.00;;
6251;SDS011;3159;52.414;9.784;2022-11-20T07:59:06;13.47;;;8.87;;
6251;SDS011;3159;52.414;9.784;2022-11-20T08:01:33;13.90;;;9.50;;
6251;SDS011;3159;52.414;9.784;2022-11-20T08:04:01;11.60;;;8.87;;
6251;SDS011;3159;52.414;9.784;2022-11-20T08:06:28;14.90;;;9.47;;
6251;SDS011;3159;52.414;9.784;2022-11-20T08:08:55;14.07;;;9.47;;
6251;SDS011;3159;52.414;9.784;2022-11-20T08:11:22;17.07;;;12.90;;
6251;SDS011;3159;52.414;9.784;2022-11-20T08:14:06;16.53;;;10.73;;
6251;SDS011;3159;52.414;9.784;2022-11-20T08:16:39;15.63;;;10.43;;
6251;SDS011;3159;52.414;9.784;2022-11-20T08:19:07;12.63;;;8.67;;
6251;SDS011;3159;52.414;9.784;2022-11-20T08:21:34;14.60;;;10.53;;
6251;SDS011;3159;52.414;9.784;2022-11-20T08:24:01;14.00;;;10.20;;
6251;SDS011;3159;52.414;9.784;2022-11-20T08:26:28;13.60;;;9.67;;
6251;SDS011;3159;52.414;9.784;2022-11-20T08:28:55;14.83;;;9.23;;
6251;SDS011;3159;52.414;9.784;2022-11-20T08:31:22;11.77;;;8.73;;
6251;SDS011;3159;52.414;9.784;2022-11-20T08:33:50;18.23;;;10.47;;
6251;SDS011;3159;52.414;9.784;2022-11-20T08:36:19;14.60;;;9.70;;
6251;SDS011;3159;52.414;9.784;2022-11-20T08:38:47;14.77;;;9.20;;
6251;SDS011;3159;52.414;9.784;2022-11-20T08:41:14;12.13;;;9.27;;
6251;SDS011;3159;52.414;9.784;2022-11-20T08:43:51;13.90;;;8.47;;
6251;SDS011;3159;52.414;9.784;2022-11-20T08:46:19;13.90;;;9.57;;
6251;SDS011;3159;52.414;9.784;2022-11-20T08:48:46;22.03;;;12.97;;
6251;SDS011;3159;52.414;9.784;2022-11-20T08:51:13;20.27;;;12.80;;
6251;SDS011;3159;52.414;9.784;2022-11-20T08:53:42;15.50;;;9.80;;
6251;SDS011;3159;52.414;9.784;2022-11-20T08:56:09;15.07;;;9.47;;
6251;SDS011;3159;52.414;9.784;2022-11-20T08:58:36;12.87;;;8.73;;
6251;SDS011;3159;52.414;9.784;2022-11-20T09:01:03;13.70;;;8.93;;
6251;SDS011;3159;52.414;9.784;2022-11-20T09:03:30;15.57;;;9.00;;
6251;SDS011;3159;52.414;9.784;2022-11-20T09:05:58;13.07;;;8.90;;
6251;SDS011;3159;52.414;9.784;2022-11-20T09:08:25;20.40;;;12.27;;
6251;SDS011;3159;52.414;9.784;2022-11-20T09:10:54;13.50;;;9.93;;
6251;SDS011;3159;52.414;9.784;2022-11-20T09:13:22;10.97;;;8.77;;
6251;SDS011;3159;52.414;9.784;2022-11-20T09:15:52;15.37;;;9.07;;
6251;SDS011;3159;52.414;9.784;2022-11-20T09:18:19;17.83;;;10.87;;
6251;SDS011;3159;52.414;9.784;2022-11-20T09:20:46;19.37;;;12.07;;
6251;SDS011;3159;52.414;9.784;2022-11-20T09:23:14;14.93;;;10.43;;
6251;SDS011;3159;52.414;9.784;2022-11-20T09:25:41;48.57;;;24.43;;
6251;SDS011;3159;52.414;9.784;2022-11-20T09:28:09;16.90;;;10.83;;
6251;SDS011;3159;52.414;9.784;2022-11-20T09:30:36;15.33;;;10.67;;
6251;SDS011;3159;52.414;9.784;2022-11-20T09:33:04;19.53;;;13.93;;
6251;SDS011;3159;52.414;9.784;2022-11-20T09:35:31;14.53;;;9.63;;
6251;SDS011;3159;52.414;9.784;2022-11-20T09:38:03;12.03;;;8.97;;
6251;SDS011;3159;52.414;9.784;2022-11-20T09:40:31;13.70;;;9.07;;
6251;SDS011;3159;52.414;9.784;2022-11-20T09:42:59;12.87;;;9.00;;
6251;SDS011;3159;52.414;9.784;2022-11-20T09:45:42;14.90;;;9.30;;
6251;SDS011;3159;52.414;9.784;2022-11-20T09:48:25;26.83;;;20.73;;
6251;SDS011;3159;52.414;9.784;2022-11-20T09:51:04;24.40;;;17.80;;
6251;SDS011;3159;52.414;9.784;2022-11-20T09:53:44;14.77;;;9.93;;
6251;SDS011;3159;52.414;9.784;2022-11-20T09:56:21;11.40;;;7.77;;
6251;SDS011;3159;52.414;9.784;2022-11-20T09:58:49;12.20;;;8.87;;
6251;SDS011;3159;52.414;9.784;2022-11-20T10:01:19;10.63;;;7.37;;
6251;SDS011;3159;52.414;9.784;2022-11-20T10:03:51;21.57;;;14.33;;
6251;SDS011;3159;52.414;9.784;2022-11-20T10:06:24;15.03;;;11.13;;
6251;SDS011;3159;52.414;9.784;2022-11-20T10:09:00;11.40;;;8.50;;
6251;SDS011;3159;52.414;9.784;2022-11-20T10:11:33;11.57;;;7.60;;
6251;SDS011;3159;52.414;9.784;2022-11-20T10:14:13;11.43;;;7.10;;
6251;SDS011;3159;52.414;9.784;2022-11-20T10:16:50;14.20;;;9.03;;
6251;SDS011;3159;52.414;9.784;2022-11-20T10:19:29;12.17;;;8.30;;
6251;SDS011;3159;52.414;9.784;2022-11-20T10:22:11;12.97;;;8.90;;
6251;SDS011;3159;52.414;9.784;2022-11-20T10:24:49;14.97;;;9.00;;
6251;SDS011;3159;52.414;9.784;2022-11-20T10:30:14;17.00;;;11.57;;
6251;SDS011;3159;52.414;9.784;2022-11-20T10:32:45;13.57;;;9.07;;
6251;SDS011;3159;52.414;9.784;2022-11-20T10:35:17;12.57;;;8.70;;
6251;SDS011;3159;52.414;9.784;2022-11-20T10:37:49;12.53;;;7.83;;
6251;SDS011;3159;52.414;9.784;2022-11-20T10:40:23;10.90;;;7.20;;
6251;SDS011;3159;52.414;9.784;2022-11-20T10:42:55;12.00;;;7.13;;
6251;SDS011;3159;52.414;9.784;2022-11-20T10:45:34;11.83;;;8.73;;
6251;SDS011;3159;52.414;9.784;2022-11-20T10:48:14;12.80;;;7.60;;
6251;SDS011;3159;52.414;9.784;2022-11-20T10:50:46;11.70;;;8.40;;
6251;SDS011;3159;52.414;9.784;2022-11-20T10:53:25;10.43;;;7.23;;
6251;SDS011;3159;52.414;9.784;2022-11-20T10:56:05;9.73;;;7.50;;
6251;SDS011;3159;52.414;9.784;2022-11-20T10:58:37;13.93;;;8.57;;
6251;SDS011;3159;52.414;9.784;2022-11-20T11:01:13;10.53;;;7.80;;
6251;SDS011;3159;52.414;9.784;2022-11-20T11:03:42;9.87;;;6.67;;
6251;SDS011;3159;52.414;9.784;2022-11-20T11:06:11;8.53;;;6.00;;
6251;SDS011;3159;52.414;9.784;2022-11-20T11:08:45;16.90;;;10.60;;
6251;SDS011;3159;52.414;9.784;2022-11-20T11:11:18;12.93;;;7.60;;
6251;SDS011;3159;52.414;9.784;2022-11-20T11:13:47;9.33;;;6.80;;
6251;SDS011;3159;52.414;9.784;2022-11-20T11:16:21;11.50;;;6.83;;
6251;SDS011;3159;52.414;9.784;2022-11-20T11:18:51;8.30;;;6.40;;
6251;SDS011;3159;52.414;9.784;2022-11-20T11:21:28;8.73;;;6.07;;
6251;SDS011;3159;52.414;9.784;2022-11-20T11:23:59;7.93;;;5.83;;
6251;SDS011;3159;52.414;9.784;2022-11-20T11:26:27;8.80;;;6.00;;
6251;SDS011;3159;52.414;9.784;2022-11-20T11:28:55;10.13;;;6.77;;
6251;SDS011;3159;52.414;9.784;2022-11-20T11:31:23;8.70;;;6.10;;
6251;SDS011;3159;52.414;9.784;2022-11-20T11:34:02;10.87;;;6.97;;
6251;SDS011;3159;52.414;9.784;2022-11-20T11:36:30;9.60;;;6.40;;
6251;SDS011;3159;52.414;9.784;2022-11-20T11:39:00;10.53;;;6.23;;
6251;SDS011;3159;52.414;9.784;2022-11-20T11:41:28;10.83;;;7.33;;
6251;SDS011;3159;52.414;9.784;2022-11-20T11:44:00;7.77;;;6.43;;
6251;SDS011;3159;52.414;9.784;2022-11-20T11:46:56;9.83;;;6.50;;
6251;SDS011;3159;52.414;9.784;2022-11-20T11:49:26;8.93;;;6.60;;
6251;SDS011;3159;52.414;9.784;2022-11-20T11:52:03;10.33;;;7.00;;
6251;SDS011;3159;52.414;9.784;2022-11-20T11:54:38;8.80;;;6.93;;
6251;SDS011;3159;52.414;9.784;2022-11-20T11:57:12;9.97;;;7.13;;
6251;SDS011;3159;52.414;9.784;2022-11-20T11:59:47;9.70;;;8.03;;
6251;SDS011;3159;52.414;9.784;2022-11-20T12:02:27;10.83;;;7.77;;
6251;SDS011;3159;52.414;9.784;2022-11-20T12:05:03;11.97;;;8.20;;
6251;SDS011;3159;52.414;9.784;2022-11-20T12:07:41;11.93;;;8.40;;
6251;SDS011;3159;52.414;9.784;2022-11-20T12:10:14;10.73;;;8.70;;
6251;SDS011;3159;52.414;9.784;2022-11-20T12:12:45;10.93;;;7.70;;
6251;SDS011;3159;52.414;9.784;2022-11-20T12:15:19;12.30;;;8.93;;
6251;SDS011;3159;52.414;9.784;2022-11-20T12:17:57;12.67;;;9.43;;
6251;SDS011;3159;52.414;9.784;2022-11-20T12:20:26;14.77;;;10.73;;
6251;SDS011;3159;52.414;9.784;2022-11-20T12:23:01;13.20;;;9.57;;
6251;SDS011;3159;52.414;9.784;2022-11-20T12:25:33;12.57;;;9.00;;
6251;SDS011;3159;52.414;9.784;2022-11-20T12:28:06;18.97;;;11.67;;
6251;SDS011;3159;52.414;9.784;2022-11-20T12:30:50;15.60;;;10.97;;
6251;SDS011;3159;52.414;9.784;2022-11-20T12:36:30;16.17;;;10.93;;
6251;SDS011;3159;52.414;9.784;2022-11-20T12:39:12;14.23;;;10.73;;
6251;SDS011;3159;52.414;9.784;2022-11-20T12:42:10;12.83;;;10.40;;
6251;SDS011;3159;52.414;9.784;2022-11-20T12:45:14;14.07;;;10.60;;
6251;SDS011;3159;52.414;9.784;2022-11-20T12:48:02;15.23;;;10.47;;
6251;SDS011;3159;52.414;9.784;2022-11-20T12:50:41;16.10;;;10.13;;
6251;SDS011;3159;52.414;9.784;2022-11-20T12:53:22;17.50;;;11.13;;
6251;SDS011;3159;52.414;9.784;2022-11-20T12:55:56;31.80;;;16.17;;
6251;SDS011;3159;52.414;9.784;2022-11-20T12:58:31;20.97;;;12.70;;
6251;SDS011;3159;52.414;9.784;2022-11-20T13:01:08;14.27;;;10.10;;
6251;SDS011;3159;52.414;9.784;2022-11-20T13:04:06;15.80;;;10.50;;
6251;SDS011;3159;52.414;9.784;2022-11-20T13:06:42;12.53;;;9.27;;
6251;SDS011;3159;52.414;9.784;2022-11-20T13:09:12;14.67;;;10.20;;
6251;SDS011;3159;52.414;9.784;2022-11-20T13:11:43;14.13;;;9.57;;
6251;SDS011;3159;52.414;9.784;2022-11-20T13:14:18;14.73;;;10.63;;
6251;SDS011;3159;52.414;9.784;2022-11-20T13:16:58;14.13;;;10.20;;
6251;SDS011;3159;52.414;9.784;2022-11-20T13:19:30;22.53;;;13.77;;
6251;SDS011;3159;52.414;9.784;2022-11-20T13:21:58;24.50;;;16.07;;
6251;SDS011;3159;52.414;9.784;2022-11-20T13:24:26;15.57;;;10.57;;
6251;SDS011;3159;52.414;9.784;2022-11-20T13:26:59;16.07;;;11.33;;
6251;SDS011;3159;52.414;9.784;2022-11-20T13:29:31;16.03;;;10.30;;
6251;SDS011;3159;52.414;9.784;2022-11-20T13:32:02;21.93;;;13.80;;
6251;SDS011;3159;52.414;9.784;2022-11-20T13:34:32;19.13;;;10.87;;
6251;SDS011;3159;52.414;9.784;2022-11-20T13:37:00;47.47;;;11.57;;
6251;SDS011;3159;52.414;9.784;2022-11-20T13:39:30;22.27;;;12.87;;
6251;SDS011;3159;52.414;9.784;2022-11-20T13:41:59;17.43;;;11.70;;
6251;SDS011;3159;52.414;9.784;2022-11-20T13:44:29;17.03;;;11.40;;
6251;SDS011;3159;52.414;9.784;2022-11-20T13:47:00;13.50;;;10.13;;
6251;SDS011;3159;52.414;9.784;2022-11-20T13:49:30;15.83;;;10.93;;
6251;SDS011;3159;52.414;9.784;2022-11-20T13:52:07;18.93;;;10.37;;
6251;SDS011;3159;52.414;9.784;2022-11-20T13:54:59;16.97;;;10.37;;
6251;SDS011;3159;52.414;9.784;2022-11-20T13:57:45;12.43;;;9.43;;
6251;SDS011;3159;52.414;9.784;2022-11-20T14:00:23;13.60;;;9.43;;
6251;SDS011;3159;52.414;9.784;2022-11-20T14:03:01;13.77;;;9.93;;
6251;SDS011;3159;52.414;9.784;2022-11-20T14:05:38;14.17;;;9.70;;
6251;SDS011;3159;52.414;9.784;2022-11-20T14:08:14;14.37;;;10.00;;
6251;SDS011;3159;52.414;9.784;2022-11-20T14:10:51;15.07;;;10.07;;
6251;SDS011;3159;52.414;9.784;2022-11-20T14:13:29;16.10;;;11.13;;
6251;SDS011;3159;52.414;9.784;2022-11-20T14:15:56;16.23;;;11.90;;
6251;SDS011;3159;52.414;9.784;2022-11-20T14:18:25;14.47;;;11.67;;
6251;SDS011;3159;52.414;9.784;2022-11-20T14:20:52;21.37;;;14.93;;
6251;SDS011;3159;52.414;9.784;2022-11-20T14:23:26;20.70;;;14.27;;
6251;SDS011;3159;52.414;9.784;2022-11-20T14:25:56;23.17;;;15.63;;
6251;SDS011;3159;52.414;9.784;2022-11-20T14:28:25;17.87;;;12.63;;
6251;SDS011;3159;52.414;9.784;2022-11-20T14:30:53;28.83;;;19.47;;
6251;SDS011;3159;52.414;9.784;2022-11-20T14:33:21;29.07;;;19.00;;
6251;SDS011;3159;52.414;9.784;2022-11-20T14:35:50;22.87;;;15.13;;
6251;SDS011;3159;52.414;9.784;2022-11-20T14:38:20;19.03;;;13.47;;
6251;SDS011;3159;52.414;9.784;2022-11-20T14:40:50;19.90;;;12.90;;
6251;SDS011;3159;52.414;9.784;2022-11-20T14:43:21;18.93;;;12.37;;
6251;SDS011;3159;52.414;9.784;2022-11-20T14:45:56;18.43;;;12.20;;
6251;SDS011;3159;52.414;9.784;2022-11-20T14:48:28;14.17;;;10.80;;
6251;SDS011;3159;52.414;9.784;2022-11-20T14:50:57;14.57;;;10.00;;
6251;SDS011;3159;52.414;9.784;2022-11-20T14:53:25;15.33;;;10.47;;
6251;SDS011;3159;52.414;9.784;2022-11-20T14:55:55;16.37;;;11.87;;
6251;SDS011;3159;52.414;9.784;2022-11-20T14:58:26;18.80;;;11.87;;
6251;SDS011;3159;52.414;9.784;2022-11-20T15:00:55;17.47;;;11.63;;
6251;SDS011;3159;52.414;9.784;2022-11-20T15:03:23;17.67;;;12.27;;
6251;SDS011;3159;52.414;9.784;2022-11-20T15:05:56;15.67;;;11.17;;
6251;SDS011;3159;52.414;9.784;2022-11-20T15:08:23;18.13;;;12.23;;
6251;SDS011;3159;52.414;9.784;2022-11-20T15:10:50;18.00;;;13.00;;
6251;SDS011;3159;52.414;9.784;2022-11-20T15:13:20;18.30;;;12.30;;
6251;SDS011;3159;52.414;9.784;2022-11-20T15:15:53;18.17;;;13.57;;
6251;SDS011;3159;52.414;9.784;2022-11-20T15:18:21;21.10;;;13.67;;